sensor_id;sensor_type;location;lat;lon;timestamp;P1;durP1;ratioP1;P2;durP2;ratioP2
79566;SDS011;69030;48.126;7.816;2023-08-20T00:01:25;7.47;;;6.72;;
79566;SDS011;69030;48.126;7.816;2023-08-20T00:03:52;8.80;;;6.85;;
79566;SDS011;69030;48.126;7.816;2023-08-20T00:06:18;9.38;;;8.27;;
79566;SDS011;69030;48.126;7.816;2023-08-20T00:08:44;8.68;;;7.78;;
79566;SDS011;69030;48.126;7.816;2023-08-20T00:11:11;8.45;;;6.85;;
79566;SDS011;69030;48.126;7.816;2023-08-20T00:13:37;12.13;;;8.50;;
79566;SDS011;69030;48.126;7.816;2023-08-20T00:16:02;7.88;;;6.97;;
79566;SDS011;69030;48.126;7.816;2023-08-20T00:18:28;8.25;;;6.30;;
79566;SDS011;69030;48.126;7.816;2023-08-20T00:20:54;9.00;;;7.53;;
79566;SDS011;69030;48.126;7.816;2023-08-20T00:23:20;9.02;;;6.28;;
79566;SDS011;69030;48.126;7.816;2023-08-20T00:25:45;10.95;;;6.90;;
79566;SDS011;69030;48.126;7.816;2023-08-20T00:28:11;8.35;;;7.47;;
79566;SDS011;69030;48.126;7.816;2023-08-20T00:30:36;7.85;;;7.05;;
79566;SDS011;69030;48.126;7.816;2023-08-20T00:33:01;12.40;;;7.90;;
79566;SDS011;69030;48.126;7.816;2023-08-20T00:35:27;9.85;;;7.35;;
79566;SDS011;69030;48.126;7.816;2023-08-20T00:37:52;10.07;;;7.53;;
79566;SDS011;69030;48.126;7.816;2023-08-20T00:40:18;7.70;;;6.70;;
79566;SDS011;69030;48.126;7.816;2023-08-20T00:42:43;11.07;;;7.50;;
79566;SDS011;69030;48.126;7.816;2023-08-20T00:45:08;7.65;;;6.50;;
79566;SDS011;69030;48.126;7.816;2023-08-20T00:47:34;10.27;;;6.72;;
79566;SDS011;69030;48.126;7.816;2023-08-20T00:50:00;8.13;;;7.32;;
79566;SDS011;69030;48.126;7.816;2023-08-20T00:52:28;9.32;;;6.28;;
79566;SDS011;69030;48.126;7.816;2023-08-20T00:54:53;8.50;;;7.18;;
79566;SDS011;69030;48.126;7.816;2023-08-20T00:57:19;9.23;;;8.23;;
79566;SDS011;69030;48.126;7.816;2023-08-20T00:59:44;12.63;;;7.45;;
79566;SDS011;69030;48.126;7.816;2023-08-20T01:02:13;8.45;;;7.47;;
79566;SDS011;69030;48.126;7.816;2023-08-20T01:04:38;9.48;;;7.70;;
79566;SDS011;69030;48.126;7.816;2023-08-20T01:07:39;9.20;;;7.32;;
79566;SDS011;69030;48.126;7.816;2023-08-20T01:10:19;8.68;;;6.80;;
79566;SDS011;69030;48.126;7.816;2023-08-20T01:12:50;10.43;;;6.55;;
79566;SDS011;69030;48.126;7.816;2023-08-20T01:15:16;9.90;;;7.03;;
79566;SDS011;69030;48.126;7.816;2023-08-20T01:17:42;8.35;;;7.55;;
79566;SDS011;69030;48.126;7.816;2023-08-20T01:20:08;12.18;;;7.60;;
79566;SDS011;69030;48.126;7.816;2023-08-20T01:30:48;9.32;;;7.35;;
79566;SDS011;69030;48.126;7.816;2023-08-20T01:33:14;10.85;;;7.13;;
79566;SDS011;69030;48.126;7.816;2023-08-20T01:35:40;11.23;;;7.72;;
79566;SDS011;69030;48.126;7.816;2023-08-20T01:38:05;10.77;;;9.68;;
79566;SDS011;69030;48.126;7.816;2023-08-20T01:40:30;7.88;;;7.07;;
79566;SDS011;69030;48.126;7.816;2023-08-20T01:42:56;7.80;;;7.00;;
79566;SDS011;69030;48.126;7.816;2023-08-20T01:45:22;7.20;;;6.50;;
79566;SDS011;69030;48.126;7.816;2023-08-20T01:47:47;9.63;;;7.80;;
79566;SDS011;69030;48.126;7.816;2023-08-20T01:50:12;8.75;;;7.63;;
79566;SDS011;69030;48.126;7.816;2023-08-20T01:52:38;9.07;;;7.30;;
79566;SDS011;69030;48.126;7.816;2023-08-20T01:55:03;10.10;;;8.10;;
79566;SDS011;69030;48.126;7.816;2023-08-20T01:57:29;8.30;;;6.82;;
79566;SDS011;69030;48.126;7.816;2023-08-20T01:59:54;10.18;;;6.93;;
79566;SDS011;69030;48.126;7.816;2023-08-20T02:02:20;12.65;;;7.97;;
79566;SDS011;69030;48.126;7.816;2023-08-20T02:04:45;9.32;;;6.43;;
79566;SDS011;69030;48.126;7.816;2023-08-20T02:07:11;8.45;;;7.60;;
79566;SDS011;69030;48.126;7.816;2023-08-20T02:09:36;8.40;;;5.90;;
79566;SDS011;69030;48.126;7.816;2023-08-20T02:12:02;11.27;;;6.97;;
79566;SDS011;69030;48.126;7.816;2023-08-20T02:14:27;7.80;;;6.88;;
79566;SDS011;69030;48.126;7.816;2023-08-20T02:16:54;10.77;;;7.18;;
79566;SDS011;69030;48.126;7.816;2023-08-20T02:19:19;10.90;;;7.03;;
79566;SDS011;69030;48.126;7.816;2023-08-20T02:21:44;7.75;;;7.00;;
79566;SDS011;69030;48.126;7.816;2023-08-20T02:24:10;8.38;;;6.47;;
79566;SDS011;69030;48.126;7.816;2023-08-20T02:26:35;9.85;;;7.15;;
79566;SDS011;69030;48.126;7.816;2023-08-20T02:29:00;7.68;;;6.93;;
79566;SDS011;69030;48.126;7.816;2023-08-20T02:31:25;9.38;;;6.78;;
79566;SDS011;69030;48.126;7.816;2023-08-20T02:33:51;10.80;;;7.35;;
79566;SDS011;69030;48.126;7.816;2023-08-20T02:36:16;12.20;;;6.65;;
79566;SDS011;69030;48.126;7.816;2023-08-20T02:38:41;8.18;;;7.18;;
79566;SDS011;69030;48.126;7.816;2023-08-20T02:41:07;8.52;;;7.43;;
79566;SDS011;69030;48.126;7.816;2023-08-20T02:43:32;10.32;;;6.97;;
79566;SDS011;69030;48.126;7.816;2023-08-20T02:45:57;8.68;;;7.00;;
79566;SDS011;69030;48.126;7.816;2023-08-20T02:48:23;9.07;;;7.25;;
79566;SDS011;69030;48.126;7.816;2023-08-20T02:50:55;8.63;;;7.25;;
79566;SDS011;69030;48.126;7.816;2023-08-20T02:53:21;8.02;;;6.60;;
79566;SDS011;69030;48.126;7.816;2023-08-20T02:55:46;9.52;;;7.88;;
79566;SDS011;69030;48.126;7.816;2023-08-20T02:58:12;9.95;;;7.72;;
79566;SDS011;69030;48.126;7.816;2023-08-20T03:00:37;11.15;;;6.90;;
79566;SDS011;69030;48.126;7.816;2023-08-20T03:03:03;11.45;;;7.95;;
79566;SDS011;69030;48.126;7.816;2023-08-20T03:05:31;9.27;;;7.57;;
79566;SDS011;69030;48.126;7.816;2023-08-20T03:07:57;9.90;;;7.07;;
79566;SDS011;69030;48.126;7.816;2023-08-20T03:10:22;10.52;;;7.78;;
79566;SDS011;69030;48.126;7.816;2023-08-20T03:12:48;10.02;;;9.07;;
79566;SDS011;69030;48.126;7.816;2023-08-20T03:15:14;9.98;;;6.32;;
79566;SDS011;69030;48.126;7.816;2023-08-20T03:17:39;8.90;;;7.78;;
79566;SDS011;69030;48.126;7.816;2023-08-20T03:20:05;7.43;;;5.93;;
79566;SDS011;69030;48.126;7.816;2023-08-20T03:22:31;8.48;;;7.53;;
79566;SDS011;69030;48.126;7.816;2023-08-20T03:24:57;11.30;;;8.23;;
79566;SDS011;69030;48.126;7.816;2023-08-20T03:27:22;10.70;;;7.00;;
79566;SDS011;69030;48.126;7.816;2023-08-20T03:29:47;10.25;;;7.75;;
79566;SDS011;69030;48.126;7.816;2023-08-20T03:32:13;9.48;;;7.97;;
79566;SDS011;69030;48.126;7.816;2023-08-20T03:34:38;9.63;;;8.63;;
79566;SDS011;69030;48.126;7.816;2023-08-20T03:37:04;8.00;;;6.45;;
79566;SDS011;69030;48.126;7.816;2023-08-20T03:39:30;9.35;;;8.35;;
79566;SDS011;69030;48.126;7.816;2023-08-20T03:41:56;11.23;;;7.85;;
79566;SDS011;69030;48.126;7.816;2023-08-20T03:44:21;11.30;;;6.97;;
79566;SDS011;69030;48.126;7.816;2023-08-20T03:46:47;12.95;;;8.88;;
79566;SDS011;69030;48.126;7.816;2023-08-20T03:49:12;12.40;;;8.27;;
79566;SDS011;69030;48.126;7.816;2023-08-20T03:51:38;9.90;;;6.72;;
79566;SDS011;69030;48.126;7.816;2023-08-20T03:54:03;12.35;;;8.48;;
79566;SDS011;69030;48.126;7.816;2023-08-20T03:56:29;11.43;;;8.35;;
79566;SDS011;69030;48.126;7.816;2023-08-20T03:58:54;10.68;;;8.48;;
79566;SDS011;69030;48.126;7.816;2023-08-20T04:01:20;10.98;;;8.25;;
79566;SDS011;69030;48.126;7.816;2023-08-20T04:03:46;10.32;;;7.72;;
79566;SDS011;69030;48.126;7.816;2023-08-20T04:06:12;12.93;;;8.20;;
79566;SDS011;69030;48.126;7.816;2023-08-20T04:08:37;12.23;;;8.43;;
79566;SDS011;69030;48.126;7.816;2023-08-20T04:11:02;10.45;;;8.18;;
79566;SDS011;69030;48.126;7.816;2023-08-20T04:13:28;8.90;;;8.00;;
79566;SDS011;69030;48.126;7.816;2023-08-20T04:15:54;9.52;;;8.52;;
79566;SDS011;69030;48.126;7.816;2023-08-20T04:18:20;9.95;;;7.68;;
79566;SDS011;69030;48.126;7.816;2023-08-20T04:20:45;10.93;;;8.15;;
79566;SDS011;69030;48.126;7.816;2023-08-20T04:23:10;9.82;;;7.90;;
79566;SDS011;69030;48.126;7.816;2023-08-20T04:25:36;10.02;;;7.75;;
79566;SDS011;69030;48.126;7.816;2023-08-20T04:28:01;10.35;;;8.43;;
79566;SDS011;69030;48.126;7.816;2023-08-20T04:30:26;13.95;;;9.73;;
79566;SDS011;69030;48.126;7.816;2023-08-20T04:32:52;9.60;;;8.65;;
79566;SDS011;69030;48.126;7.816;2023-08-20T04:35:17;9.98;;;8.52;;
79566;SDS011;69030;48.126;7.816;2023-08-20T04:37:42;10.00;;;8.60;;
79566;SDS011;69030;48.126;7.816;2023-08-20T04:40:08;9.85;;;7.90;;
79566;SDS011;69030;48.126;7.816;2023-08-20T04:42:33;9.75;;;5.72;;
79566;SDS011;69030;48.126;7.816;2023-08-20T04:44:59;9.23;;;7.80;;
79566;SDS011;69030;48.126;7.816;2023-08-20T04:47:24;11.10;;;7.90;;
79566;SDS011;69030;48.126;7.816;2023-08-20T04:49:49;7.53;;;6.68;;
79566;SDS011;69030;48.126;7.816;2023-08-20T04:52:15;9.45;;;7.95;;
79566;SDS011;69030;48.126;7.816;2023-08-20T04:54:40;10.95;;;7.75;;
79566;SDS011;69030;48.126;7.816;2023-08-20T04:57:06;10.00;;;7.57;;
79566;SDS011;69030;48.126;7.816;2023-08-20T04:59:31;11.18;;;7.00;;
79566;SDS011;69030;48.126;7.816;2023-08-20T05:01:56;8.48;;;7.57;;
79566;SDS011;69030;48.126;7.816;2023-08-20T05:04:22;10.15;;;8.20;;
79566;SDS011;69030;48.126;7.816;2023-08-20T05:06:47;10.13;;;8.30;;
79566;SDS011;69030;48.126;7.816;2023-08-20T05:09:13;9.38;;;8.07;;
79566;SDS011;69030;48.126;7.816;2023-08-20T05:11:38;10.57;;;7.80;;
79566;SDS011;69030;48.126;7.816;2023-08-20T05:14:03;9.93;;;7.75;;
79566;SDS011;69030;48.126;7.816;2023-08-20T05:16:29;9.13;;;8.18;;
79566;SDS011;69030;48.126;7.816;2023-08-20T05:18:54;11.02;;;8.18;;
79566;SDS011;69030;48.126;7.816;2023-08-20T05:21:20;9.80;;;8.27;;
79566;SDS011;69030;48.126;7.816;2023-08-20T05:23:45;10.27;;;8.05;;
79566;SDS011;69030;48.126;7.816;2023-08-20T05:26:10;9.52;;;7.75;;
79566;SDS011;69030;48.126;7.816;2023-08-20T05:28:36;10.68;;;7.80;;
79566;SDS011;69030;48.126;7.816;2023-08-20T05:31:01;9.23;;;8.32;;
79566;SDS011;69030;48.126;7.816;2023-08-20T05:33:26;10.20;;;7.78;;
79566;SDS011;69030;48.126;7.816;2023-08-20T05:35:52;9.55;;;8.55;;
79566;SDS011;69030;48.126;7.816;2023-08-20T05:38:17;13.13;;;7.78;;
79566;SDS011;69030;48.126;7.816;2023-08-20T05:40:43;9.77;;;7.43;;
79566;SDS011;69030;48.126;7.816;2023-08-20T05:43:08;8.60;;;7.60;;
79566;SDS011;69030;48.126;7.816;2023-08-20T05:45:34;8.32;;;6.57;;
79566;SDS011;69030;48.126;7.816;2023-08-20T05:47:59;9.40;;;8.10;;
79566;SDS011;69030;48.126;7.816;2023-08-20T05:50:25;9.90;;;8.23;;
79566;SDS011;69030;48.126;7.816;2023-08-20T05:52:51;10.45;;;8.13;;
79566;SDS011;69030;48.126;7.816;2023-08-20T05:55:17;12.45;;;7.85;;
79566;SDS011;69030;48.126;7.816;2023-08-20T05:57:42;10.20;;;7.80;;
79566;SDS011;69030;48.126;7.816;2023-08-20T06:00:08;11.73;;;8.45;;
79566;SDS011;69030;48.126;7.816;2023-08-20T06:02:34;8.98;;;6.90;;
79566;SDS011;69030;48.126;7.816;2023-08-20T06:05:00;10.48;;;7.72;;
79566;SDS011;69030;48.126;7.816;2023-08-20T06:07:25;10.23;;;7.75;;
79566;SDS011;69030;48.126;7.816;2023-08-20T06:09:50;9.75;;;7.38;;
79566;SDS011;69030;48.126;7.816;2023-08-20T06:12:16;12.05;;;7.60;;
79566;SDS011;69030;48.126;7.816;2023-08-20T06:14:42;8.02;;;7.05;;
79566;SDS011;69030;48.126;7.816;2023-08-20T06:17:07;9.38;;;8.48;;
79566;SDS011;69030;48.126;7.816;2023-08-20T06:19:33;6.93;;;6.32;;
79566;SDS011;69030;48.126;7.816;2023-08-20T06:21:59;8.20;;;6.45;;
79566;SDS011;69030;48.126;7.816;2023-08-20T06:24:24;8.40;;;6.43;;
79566;SDS011;69030;48.126;7.816;2023-08-20T06:26:50;7.43;;;6.30;;
79566;SDS011;69030;48.126;7.816;2023-08-20T06:29:16;8.80;;;6.38;;
79566;SDS011;69030;48.126;7.816;2023-08-20T06:31:41;7.53;;;6.40;;
79566;SDS011;69030;48.126;7.816;2023-08-20T06:34:07;7.30;;;6.57;;
79566;SDS011;69030;48.126;7.816;2023-08-20T06:36:32;7.63;;;6.80;;
79566;SDS011;69030;48.126;7.816;2023-08-20T06:38:58;7.00;;;6.30;;
79566;SDS011;69030;48.126;7.816;2023-08-20T06:41:23;15.07;;;7.18;;
79566;SDS011;69030;48.126;7.816;2023-08-20T06:43:48;8.38;;;7.65;;
79566;SDS011;69030;48.126;7.816;2023-08-20T06:46:14;7.90;;;6.32;;
79566;SDS011;69030;48.126;7.816;2023-08-20T06:48:40;11.10;;;7.22;;
79566;SDS011;69030;48.126;7.816;2023-08-20T06:51:11;10.63;;;6.20;;
79566;SDS011;69030;48.126;7.816;2023-08-20T06:53:38;10.38;;;8.13;;
79566;SDS011;69030;48.126;7.816;2023-08-20T06:56:03;10.43;;;5.97;;
79566;SDS011;69030;48.126;7.816;2023-08-20T06:58:29;8.02;;;6.57;;
79566;SDS011;69030;48.126;7.816;2023-08-20T07:00:57;11.27;;;7.72;;
79566;SDS011;69030;48.126;7.816;2023-08-20T07:03:32;13.13;;;7.90;;
79566;SDS011;69030;48.126;7.816;2023-08-20T07:06:07;8.57;;;7.68;;
79566;SDS011;69030;48.126;7.816;2023-08-20T07:08:34;8.52;;;5.80;;
79566;SDS011;69030;48.126;7.816;2023-08-20T07:11:00;8.95;;;6.82;;
79566;SDS011;69030;48.126;7.816;2023-08-20T07:13:25;9.82;;;6.57;;
79566;SDS011;69030;48.126;7.816;2023-08-20T07:15:50;9.90;;;7.75;;
79566;SDS011;69030;48.126;7.816;2023-08-20T07:18:16;8.25;;;7.20;;
79566;SDS011;69030;48.126;7.816;2023-08-20T07:20:42;10.93;;;6.85;;
79566;SDS011;69030;48.126;7.816;2023-08-20T07:23:08;8.65;;;7.15;;
79566;SDS011;69030;48.126;7.816;2023-08-20T07:25:36;9.70;;;7.40;;
79566;SDS011;69030;48.126;7.816;2023-08-20T07:28:05;8.85;;;6.70;;
79566;SDS011;69030;48.126;7.816;2023-08-20T07:30:31;9.05;;;7.18;;
79566;SDS011;69030;48.126;7.816;2023-08-20T07:32:57;8.88;;;7.72;;
79566;SDS011;69030;48.126;7.816;2023-08-20T07:35:22;11.60;;;8.05;;
79566;SDS011;69030;48.126;7.816;2023-08-20T07:37:48;9.45;;;7.57;;
79566;SDS011;69030;48.126;7.816;2023-08-20T07:40:13;11.98;;;8.10;;
79566;SDS011;69030;48.126;7.816;2023-08-20T07:42:41;10.43;;;8.95;;
79566;SDS011;69030;48.126;7.816;2023-08-20T07:45:07;9.25;;;7.63;;
79566;SDS011;69030;48.126;7.816;2023-08-20T07:47:34;10.25;;;7.65;;
79566;SDS011;69030;48.126;7.816;2023-08-20T07:50:00;7.70;;;6.90;;
79566;SDS011;69030;48.126;7.816;2023-08-20T07:52:26;9.63;;;6.93;;
79566;SDS011;69030;48.126;7.816;2023-08-20T07:54:51;12.82;;;7.70;;
79566;SDS011;69030;48.126;7.816;2023-08-20T07:57:17;9.68;;;7.70;;
79566;SDS011;69030;48.126;7.816;2023-08-20T07:59:42;10.00;;;7.65;;
79566;SDS011;69030;48.126;7.816;2023-08-20T08:02:07;7.38;;;6.38;;
79566;SDS011;69030;48.126;7.816;2023-08-20T08:04:33;10.25;;;6.78;;
79566;SDS011;69030;48.126;7.816;2023-08-20T08:06:59;8.63;;;7.53;;
79566;SDS011;69030;48.126;7.816;2023-08-20T08:09:28;11.65;;;6.70;;
79566;SDS011;69030;48.126;7.816;2023-08-20T08:11:54;8.13;;;7.18;;
79566;SDS011;69030;48.126;7.816;2023-08-20T08:14:20;6.63;;;5.97;;
79566;SDS011;69030;48.126;7.816;2023-08-20T08:16:46;8.10;;;6.70;;
79566;SDS011;69030;48.126;7.816;2023-08-20T08:19:11;9.95;;;6.95;;
79566;SDS011;69030;48.126;7.816;2023-08-20T08:21:37;8.52;;;7.63;;
79566;SDS011;69030;48.126;7.816;2023-08-20T08:24:03;11.07;;;8.02;;
79566;SDS011;69030;48.126;7.816;2023-08-20T08:26:29;8.85;;;6.97;;
79566;SDS011;69030;48.126;7.816;2023-08-20T08:28:54;9.63;;;7.15;;
79566;SDS011;69030;48.126;7.816;2023-08-20T08:31:19;11.90;;;7.85;;
79566;SDS011;69030;48.126;7.816;2023-08-20T08:33:45;8.40;;;7.10;;
79566;SDS011;69030;48.126;7.816;2023-08-20T08:36:10;10.95;;;6.68;;
79566;SDS011;69030;48.126;7.816;2023-08-20T08:38:36;9.95;;;6.85;;
79566;SDS011;69030;48.126;7.816;2023-08-20T08:41:03;10.05;;;6.70;;
79566;SDS011;69030;48.126;7.816;2023-08-20T08:43:28;8.23;;;6.78;;
79566;SDS011;69030;48.126;7.816;2023-08-20T08:45:55;9.00;;;6.00;;
79566;SDS011;69030;48.126;7.816;2023-08-20T08:48:21;7.20;;;6.50;;
79566;SDS011;69030;48.126;7.816;2023-08-20T08:50:46;8.85;;;6.80;;
79566;SDS011;69030;48.126;7.816;2023-08-20T08:53:12;8.07;;;7.25;;
79566;SDS011;69030;48.126;7.816;2023-08-20T08:55:38;8.73;;;7.43;;
79566;SDS011;69030;48.126;7.816;2023-08-20T08:58:03;9.68;;;6.85;;
79566;SDS011;69030;48.126;7.816;2023-08-20T09:00:29;7.72;;;6.10;;
79566;SDS011;69030;48.126;7.816;2023-08-20T09:02:56;7.03;;;6.32;;
79566;SDS011;69030;48.126;7.816;2023-08-20T09:05:21;7.78;;;6.20;;
79566;SDS011;69030;48.126;7.816;2023-08-20T09:07:47;8.00;;;5.85;;
79566;SDS011;69030;48.126;7.816;2023-08-20T09:10:12;6.75;;;5.78;;
79566;SDS011;69030;48.126;7.816;2023-08-20T09:12:41;8.15;;;6.38;;
79566;SDS011;69030;48.126;7.816;2023-08-20T09:15:10;6.18;;;5.05;;
79566;SDS011;69030;48.126;7.816;2023-08-20T09:17:36;7.10;;;6.35;;
79566;SDS011;69030;48.126;7.816;2023-08-20T09:20:01;10.70;;;6.55;;
79566;SDS011;69030;48.126;7.816;2023-08-20T09:22:27;8.50;;;6.80;;
79566;SDS011;69030;48.126;7.816;2023-08-20T09:24:53;7.60;;;5.25;;
79566;SDS011;69030;48.126;7.816;2023-08-20T09:27:22;7.18;;;4.68;;
79566;SDS011;69030;48.126;7.816;2023-08-20T09:29:49;7.50;;;6.72;;
79566;SDS011;69030;48.126;7.816;2023-08-20T09:32:19;6.85;;;5.80;;
79566;SDS011;69030;48.126;7.816;2023-08-20T09:34:45;6.55;;;5.95;;
79566;SDS011;69030;48.126;7.816;2023-08-20T09:37:14;8.70;;;6.10;;
79566;SDS011;69030;48.126;7.816;2023-08-20T09:39:43;8.23;;;7.40;;
79566;SDS011;69030;48.126;7.816;2023-08-20T09:42:09;8.95;;;7.32;;
79566;SDS011;69030;48.126;7.816;2023-08-20T09:44:36;8.57;;;7.70;;
79566;SDS011;69030;48.126;7.816;2023-08-20T09:47:05;8.50;;;6.57;;
79566;SDS011;69030;48.126;7.816;2023-08-20T09:49:32;8.40;;;6.38;;
79566;SDS011;69030;48.126;7.816;2023-08-20T09:52:06;7.55;;;6.07;;
79566;SDS011;69030;48.126;7.816;2023-08-20T09:55:09;7.80;;;6.28;;
79566;SDS011;69030;48.126;7.816;2023-08-20T09:57:35;8.95;;;7.07;;
79566;SDS011;69030;48.126;7.816;2023-08-20T10:00:09;8.35;;;7.03;;
79566;SDS011;69030;48.126;7.816;2023-08-20T10:02:39;8.52;;;7.00;;
79566;SDS011;69030;48.126;7.816;2023-08-20T10:05:15;10.05;;;7.53;;
79566;SDS011;69030;48.126;7.816;2023-08-20T10:07:45;9.30;;;6.20;;
79566;SDS011;69030;48.126;7.816;2023-08-20T10:10:11;9.07;;;8.20;;
79566;SDS011;69030;48.126;7.816;2023-08-20T10:12:38;8.43;;;7.57;;
79566;SDS011;69030;48.126;7.816;2023-08-20T10:15:04;11.32;;;7.00;;
79566;SDS011;69030;48.126;7.816;2023-08-20T10:17:32;8.38;;;7.55;;
79566;SDS011;69030;48.126;7.816;2023-08-20T10:19:59;9.13;;;7.15;;
79566;SDS011;69030;48.126;7.816;2023-08-20T10:25:27;6.90;;;5.47;;
79566;SDS011;69030;48.126;7.816;2023-08-20T10:28:10;8.45;;;7.10;;
79566;SDS011;69030;48.126;7.816;2023-08-20T10:31:05;7.90;;;7.18;;
79566;SDS011;69030;48.126;7.816;2023-08-20T10:36:08;8.82;;;7.50;;
79566;SDS011;69030;48.126;7.816;2023-08-20T10:38:37;9.05;;;7.40;;
79566;SDS011;69030;48.126;7.816;2023-08-20T10:41:05;8.02;;;7.22;;
79566;SDS011;69030;48.126;7.816;2023-08-20T10:43:32;17.75;;;9.05;;
79566;SDS011;69030;48.126;7.816;2023-08-20T10:48:32;9.43;;;8.13;;
79566;SDS011;69030;48.126;7.816;2023-08-20T10:51:05;8.93;;;7.80;;
79566;SDS011;69030;48.126;7.816;2023-08-20T10:53:35;9.05;;;8.07;;
79566;SDS011;69030;48.126;7.816;2023-08-20T10:56:10;7.63;;;6.90;;
79566;SDS011;69030;48.126;7.816;2023-08-20T10:58:43;8.88;;;6.43;;
79566;SDS011;69030;48.126;7.816;2023-08-20T11:01:18;10.30;;;7.72;;
79566;SDS011;69030;48.126;7.816;2023-08-20T11:03:47;10.43;;;7.88;;
79566;SDS011;69030;48.126;7.816;2023-08-20T11:08:39;11.10;;;6.78;;
79566;SDS011;69030;48.126;7.816;2023-08-20T11:11:05;8.48;;;7.68;;
79566;SDS011;69030;48.126;7.816;2023-08-20T11:13:33;7.93;;;7.20;;
79566;SDS011;69030;48.126;7.816;2023-08-20T11:16:01;8.20;;;7.40;;
79566;SDS011;69030;48.126;7.816;2023-08-20T11:18:27;8.77;;;6.78;;
79566;SDS011;69030;48.126;7.816;2023-08-20T11:20:53;11.20;;;7.45;;
79566;SDS011;69030;48.126;7.816;2023-08-20T11:23:19;10.45;;;7.63;;
79566;SDS011;69030;48.126;7.816;2023-08-20T11:25:45;7.95;;;6.20;;
79566;SDS011;69030;48.126;7.816;2023-08-20T11:28:10;9.00;;;5.43;;
79566;SDS011;69030;48.126;7.816;2023-08-20T11:30:36;7.25;;;5.55;;
79566;SDS011;69030;48.126;7.816;2023-08-20T11:33:01;10.80;;;7.18;;
79566;SDS011;69030;48.126;7.816;2023-08-20T11:35:27;8.50;;;5.95;;
79566;SDS011;69030;48.126;7.816;2023-08-20T11:37:53;6.75;;;6.05;;
79566;SDS011;69030;48.126;7.816;2023-08-20T11:40:20;9.65;;;6.85;;
79566;SDS011;69030;48.126;7.816;2023-08-20T11:42:45;9.02;;;6.38;;
79566;SDS011;69030;48.126;7.816;2023-08-20T11:45:11;6.45;;;5.05;;
79566;SDS011;69030;48.126;7.816;2023-08-20T11:47:39;12.48;;;6.20;;
79566;SDS011;69030;48.126;7.816;2023-08-20T11:50:05;7.25;;;6.45;;
79566;SDS011;69030;48.126;7.816;2023-08-20T11:52:32;5.78;;;5.18;;
79566;SDS011;69030;48.126;7.816;2023-08-20T11:54:58;7.72;;;6.15;;
79566;SDS011;69030;48.126;7.816;2023-08-20T11:57:24;8.45;;;5.35;;
79566;SDS011;69030;48.126;7.816;2023-08-20T11:59:49;9.80;;;6.00;;
79566;SDS011;69030;48.126;7.816;2023-08-20T12:02:15;7.47;;;4.70;;
79566;SDS011;69030;48.126;7.816;2023-08-20T12:04:40;6.30;;;5.38;;
79566;SDS011;69030;48.126;7.816;2023-08-20T12:07:08;7.82;;;5.68;;
79566;SDS011;69030;48.126;7.816;2023-08-20T12:09:34;9.43;;;6.35;;
79566;SDS011;69030;48.126;7.816;2023-08-20T12:12:00;5.97;;;5.38;;
79566;SDS011;69030;48.126;7.816;2023-08-20T12:14:26;6.38;;;5.78;;
79566;SDS011;69030;48.126;7.816;2023-08-20T12:16:53;7.32;;;4.47;;
79566;SDS011;69030;48.126;7.816;2023-08-20T12:19:19;8.48;;;6.13;;
79566;SDS011;69030;48.126;7.816;2023-08-20T12:21:44;7.95;;;6.25;;
79566;SDS011;69030;48.126;7.816;2023-08-20T12:24:10;7.57;;;5.45;;
79566;SDS011;69030;48.126;7.816;2023-08-20T12:26:39;6.13;;;5.47;;
79566;SDS011;69030;48.126;7.816;2023-08-20T12:29:05;10.77;;;6.05;;
79566;SDS011;69030;48.126;7.816;2023-08-20T12:31:31;7.03;;;5.47;;
79566;SDS011;69030;48.126;7.816;2023-08-20T12:33:56;6.43;;;5.82;;
79566;SDS011;69030;48.126;7.816;2023-08-20T12:36:22;7.20;;;5.57;;
79566;SDS011;69030;48.126;7.816;2023-08-20T12:38:47;6.38;;;5.78;;
79566;SDS011;69030;48.126;7.816;2023-08-20T12:41:12;7.97;;;6.03;;
79566;SDS011;69030;48.126;7.816;2023-08-20T12:43:38;6.40;;;5.85;;
79566;SDS011;69030;48.126;7.816;2023-08-20T12:46:04;5.90;;;5.40;;
79566;SDS011;69030;48.126;7.816;2023-08-20T12:48:30;8.45;;;5.47;;
79566;SDS011;69030;48.126;7.816;2023-08-20T12:50:55;7.97;;;5.47;;
79566;SDS011;69030;48.126;7.816;2023-08-20T12:53:21;5.50;;;5.00;;
79566;SDS011;69030;48.126;7.816;2023-08-20T12:55:47;6.80;;;6.00;;
79566;SDS011;69030;48.126;7.816;2023-08-20T12:58:12;6.60;;;4.93;;
79566;SDS011;69030;48.126;7.816;2023-08-20T13:00:37;6.05;;;4.28;;
79566;SDS011;69030;48.126;7.816;2023-08-20T13:03:03;6.75;;;4.68;;
79566;SDS011;69030;48.126;7.816;2023-08-20T13:05:29;5.50;;;4.88;;
79566;SDS011;69030;48.126;7.816;2023-08-20T13:07:57;7.32;;;4.75;;
79566;SDS011;69030;48.126;7.816;2023-08-20T13:10:23;5.90;;;5.38;;
79566;SDS011;69030;48.126;7.816;2023-08-20T13:12:50;5.97;;;4.40;;
79566;SDS011;69030;48.126;7.816;2023-08-20T13:15:19;7.07;;;6.43;;
79566;SDS011;69030;48.126;7.816;2023-08-20T13:17:46;6.97;;;4.97;;
79566;SDS011;69030;48.126;7.816;2023-08-20T13:20:13;7.43;;;4.32;;
79566;SDS011;69030;48.126;7.816;2023-08-20T13:22:39;5.35;;;4.85;;
79566;SDS011;69030;48.126;7.816;2023-08-20T13:25:04;5.68;;;4.15;;
79566;SDS011;69030;48.126;7.816;2023-08-20T13:27:30;7.70;;;4.57;;
79566;SDS011;69030;48.126;7.816;2023-08-20T13:29:56;6.07;;;4.45;;
79566;SDS011;69030;48.126;7.816;2023-08-20T13:32:21;5.65;;;5.03;;
79566;SDS011;69030;48.126;7.816;2023-08-20T13:34:47;6.70;;;5.15;;
79566;SDS011;69030;48.126;7.816;2023-08-20T13:37:12;6.30;;;4.90;;
79566;SDS011;69030;48.126;7.816;2023-08-20T13:39:37;6.63;;;4.97;;
79566;SDS011;69030;48.126;7.816;2023-08-20T13:42:03;8.35;;;4.82;;
79566;SDS011;69030;48.126;7.816;2023-08-20T13:44:28;8.63;;;4.47;;
79566;SDS011;69030;48.126;7.816;2023-08-20T13:46:54;5.88;;;4.80;;
79566;SDS011;69030;48.126;7.816;2023-08-20T13:49:20;5.20;;;4.70;;
79566;SDS011;69030;48.126;7.816;2023-08-20T13:51:45;7.82;;;5.95;;
79566;SDS011;69030;48.126;7.816;2023-08-20T13:54:10;5.50;;;4.85;;
79566;SDS011;69030;48.126;7.816;2023-08-20T13:56:36;6.75;;;5.20;;
79566;SDS011;69030;48.126;7.816;2023-08-20T13:59:01;5.90;;;4.93;;
79566;SDS011;69030;48.126;7.816;2023-08-20T14:01:27;5.85;;;5.00;;
79566;SDS011;69030;48.126;7.816;2023-08-20T14:03:52;8.27;;;6.80;;
79566;SDS011;69030;48.126;7.816;2023-08-20T14:06:18;8.02;;;5.82;;
79566;SDS011;69030;48.126;7.816;2023-08-20T14:08:44;6.75;;;4.82;;
79566;SDS011;69030;48.126;7.816;2023-08-20T14:11:09;10.40;;;5.47;;
79566;SDS011;69030;48.126;7.816;2023-08-20T14:13:35;6.22;;;5.55;;
79566;SDS011;69030;48.126;7.816;2023-08-20T14:16:00;6.25;;;5.47;;
79566;SDS011;69030;48.126;7.816;2023-08-20T14:18:26;8.05;;;5.10;;
79566;SDS011;69030;48.126;7.816;2023-08-20T14:20:51;6.03;;;4.88;;
79566;SDS011;69030;48.126;7.816;2023-08-20T14:23:17;7.13;;;5.10;;
79566;SDS011;69030;48.126;7.816;2023-08-20T14:25:42;8.52;;;5.90;;
79566;SDS011;69030;48.126;7.816;2023-08-20T14:28:08;7.32;;;4.60;;
79566;SDS011;69030;48.126;7.816;2023-08-20T14:30:37;8.02;;;5.40;;
79566;SDS011;69030;48.126;7.816;2023-08-20T14:33:03;5.97;;;4.70;;
79566;SDS011;69030;48.126;7.816;2023-08-20T14:35:29;5.80;;;5.30;;
79566;SDS011;69030;48.126;7.816;2023-08-20T14:37:55;6.57;;;4.57;;
79566;SDS011;69030;48.126;7.816;2023-08-20T14:40:20;7.20;;;5.35;;
79566;SDS011;69030;48.126;7.816;2023-08-20T14:42:46;5.95;;;4.75;;
79566;SDS011;69030;48.126;7.816;2023-08-20T14:45:11;9.70;;;5.10;;
79566;SDS011;69030;48.126;7.816;2023-08-20T14:47:36;5.00;;;4.50;;
79566;SDS011;69030;48.126;7.816;2023-08-20T14:50:02;7.90;;;5.63;;
79566;SDS011;69030;48.126;7.816;2023-08-20T14:52:28;6.38;;;4.00;;
79566;SDS011;69030;48.126;7.816;2023-08-20T14:54:54;6.47;;;5.50;;
79566;SDS011;69030;48.126;7.816;2023-08-20T14:57:19;5.15;;;4.65;;